createdAt,value
2023-05-03T00:00:40.107Z,10.85
2023-05-03T00:03:12.330Z,10.86
2023-05-03T00:05:38.854Z,10.84
2023-05-03T00:08:05.333Z,10.83
2023-05-03T00:10:31.636Z,10.83
2023-05-03T00:12:58.071Z,10.81
2023-05-03T00:15:35.913Z,10.79
2023-05-03T00:18:04.974Z,10.80
2023-05-03T00:20:31.354Z,10.81
2023-05-03T00:22:58.160Z,10.83
2023-05-03T00:25:27.244Z,10.85
2023-05-03T00:27:53.759Z,10.87
2023-05-03T00:30:20.244Z,10.89
2023-05-03T00:32:49.620Z,10.91
2023-05-03T00:35:16.038Z,10.92
2023-05-03T00:37:49.876Z,10.92
2023-05-03T00:40:16.596Z,10.93
2023-05-03T00:42:43.200Z,10.94
2023-05-03T00:45:09.611Z,10.95
2023-05-03T00:47:36.475Z,10.97
2023-05-03T00:50:03.123Z,10.99
2023-05-03T00:52:30.325Z,11.00
2023-05-03T00:54:57.227Z,11.02
2023-05-03T00:57:24.840Z,11.01
2023-05-03T00:59:52.259Z,11.01
2023-05-03T01:02:18.769Z,11.02
2023-05-03T01:04:45.225Z,11.00
2023-05-03T01:07:21.892Z,11.00
2023-05-03T01:10:02.963Z,11.00
2023-05-03T01:12:48.891Z,11.00
2023-05-03T01:15:20.428Z,11.01
2023-05-03T01:18:02.068Z,11.01
2023-05-03T01:20:29.597Z,11.04
2023-05-03T01:23:04.643Z,11.05
2023-05-03T01:25:31.012Z,11.06
2023-05-03T01:27:57.560Z,11.06
2023-05-03T01:30:26.655Z,11.05
2023-05-03T01:32:56.334Z,11.04
2023-05-03T01:35:28.822Z,11.04
2023-05-03T01:37:56.776Z,11.06
2023-05-03T01:40:24.571Z,11.06
2023-05-03T01:42:51.543Z,11.08
2023-05-03T01:45:17.950Z,11.09
2023-05-03T01:47:44.256Z,11.11
2023-05-03T01:50:10.806Z,11.11
2023-05-03T01:52:37.488Z,11.12
2023-05-03T01:55:03.938Z,11.12
2023-05-03T01:57:30.315Z,11.12
2023-05-03T01:59:56.772Z,11.12
2023-05-03T02:02:23.190Z,11.09
2023-05-03T02:04:49.626Z,11.07
2023-05-03T02:07:16.125Z,11.05
2023-05-03T02:09:43.052Z,11.04
2023-05-03T02:12:09.866Z,11.03
2023-05-03T02:14:36.369Z,11.03
2023-05-03T02:17:02.734Z,11.02
2023-05-03T02:19:29.052Z,10.99
2023-05-03T02:21:55.969Z,10.97
2023-05-03T02:24:23.387Z,10.96
2023-05-03T02:26:49.923Z,10.94
2023-05-03T02:29:16.295Z,10.94
2023-05-03T02:31:45.929Z,10.94
2023-05-03T02:34:12.231Z,10.94
2023-05-03T02:36:38.601Z,10.93
2023-05-03T02:39:04.928Z,10.93
2023-05-03T02:41:32.879Z,10.94
2023-05-03T02:43:59.318Z,10.95
2023-05-03T02:46:26.008Z,10.94
2023-05-03T02:48:52.482Z,10.93
2023-05-03T02:51:18.874Z,10.94
2023-05-03T02:53:45.277Z,10.94
2023-05-03T02:56:11.697Z,10.94
2023-05-03T02:58:38.180Z,10.93
2023-05-03T03:01:05.013Z,10.93
2023-05-03T03:03:31.465Z,10.93
2023-05-03T03:05:57.941Z,10.91
2023-05-03T03:08:24.768Z,10.87
2023-05-03T03:10:57.255Z,10.82
2023-05-03T03:13:23.586Z,10.77
2023-05-03T03:15:49.893Z,10.74
2023-05-03T03:18:18.996Z,10.71
2023-05-03T03:20:46.289Z,10.72
2023-05-03T03:23:15.154Z,10.72
2023-05-03T03:25:43.883Z,10.71
2023-05-03T03:28:10.361Z,10.70
2023-05-03T03:30:37.007Z,10.69
2023-05-03T03:33:17.137Z,10.66
2023-05-03T03:35:44.062Z,10.62
2023-05-03T03:38:10.746Z,10.60
2023-05-03T03:40:38.237Z,10.59
2023-05-03T03:43:05.284Z,10.58
2023-05-03T03:45:31.688Z,10.58
2023-05-03T03:47:58.909Z,10.59
2023-05-03T03:50:26.495Z,10.59
2023-05-03T03:52:52.810Z,10.60
2023-05-03T03:55:22.440Z,10.61
2023-05-03T03:57:49.185Z,10.62
2023-05-03T04:00:16.003Z,10.62
2023-05-03T04:02:48.419Z,10.61
2023-05-03T04:05:17.429Z,10.61
2023-05-03T04:07:44.575Z,10.61
2023-05-03T04:10:11.386Z,10.62
2023-05-03T04:12:39.200Z,10.63
2023-05-03T04:15:06.151Z,10.63
2023-05-03T04:17:33.403Z,10.66
2023-05-03T04:20:01.339Z,10.69
2023-05-03T04:22:29.258Z,10.71
2023-05-03T04:24:55.580Z,10.73
2023-05-03T04:27:22.072Z,10.75
2023-05-03T04:29:58.771Z,10.76
2023-05-03T04:32:25.632Z,10.77
2023-05-03T04:34:54.304Z,10.77
2023-05-03T04:37:21.929Z,10.79
2023-05-03T04:39:49.209Z,10.79
2023-05-03T04:42:18.424Z,10.80
2023-05-03T04:44:45.346Z,10.82
2023-05-03T04:47:20.077Z,10.84
2023-05-03T04:49:46.471Z,10.86
2023-05-03T04:52:13.199Z,10.89
2023-05-03T04:54:49.798Z,10.89
2023-05-03T04:57:16.422Z,10.92
2023-05-03T04:59:43.133Z,10.95
2023-05-03T05:02:10.439Z,10.98
2023-05-03T05:04:42.512Z,11.02
2023-05-03T05:07:29.258Z,11.05
2023-05-03T05:09:58.517Z,11.08
2023-05-03T05:12:25.843Z,11.11
2023-05-03T05:15:01.431Z,11.12
2023-05-03T05:17:27.964Z,11.14
2023-05-03T05:19:54.639Z,11.17
2023-05-03T05:22:21.230Z,11.19
2023-05-03T05:24:52.581Z,11.24
2023-05-03T05:27:19.412Z,11.28
2023-05-03T05:29:45.892Z,11.34
2023-05-03T05:32:12.222Z,11.40
2023-05-03T05:34:45.165Z,11.45
2023-05-03T05:37:16.053Z,11.51
2023-05-03T05:39:42.959Z,11.56
2023-05-03T05:42:10.262Z,11.60
2023-05-03T05:44:37.383Z,11.64
2023-05-03T05:47:04.399Z,11.65
2023-05-03T05:49:32.723Z,11.67
2023-05-03T05:51:59.259Z,11.67
2023-05-03T05:54:27.071Z,11.66
2023-05-03T05:56:55.134Z,11.65
2023-05-03T05:59:21.530Z,11.62
2023-05-03T06:01:47.928Z,11.58
2023-05-03T06:04:16.999Z,11.56
2023-05-03T06:06:43.952Z,11.55
2023-05-03T06:09:23.315Z,11.53
2023-05-03T06:11:53.130Z,11.54
2023-05-03T06:14:19.607Z,11.57
2023-05-03T06:16:47.118Z,11.63
2023-05-03T06:19:13.615Z,11.70
2023-05-03T06:21:40.082Z,11.76
2023-05-03T06:24:09.007Z,11.82
2023-05-03T06:26:35.439Z,11.90
2023-05-03T06:29:02.556Z,11.96
2023-05-03T06:31:29.412Z,12.02
2023-05-03T06:33:58.776Z,12.08
2023-05-03T06:36:25.805Z,12.16
2023-05-03T06:38:52.204Z,12.21
2023-05-03T06:41:18.753Z,12.25
2023-05-03T06:43:45.132Z,12.22
2023-05-03T06:46:14.235Z,12.20
2023-05-03T06:48:40.915Z,12.22
2023-05-03T06:51:07.500Z,12.25
2023-05-03T06:53:37.419Z,12.29
2023-05-03T06:56:03.966Z,12.34
2023-05-03T06:58:30.541Z,12.37
2023-05-03T07:00:56.861Z,12.40
2023-05-03T07:03:23.528Z,12.43
2023-05-03T07:05:50.375Z,12.48
2023-05-03T07:08:16.792Z,12.54
2023-05-03T07:10:43.206Z,12.61
2023-05-03T07:13:09.820Z,12.64
2023-05-03T07:15:36.299Z,12.62
2023-05-03T07:18:02.844Z,12.65
2023-05-03T07:20:29.421Z,12.71
2023-05-03T07:22:55.912Z,12.75
2023-05-03T07:25:22.677Z,12.83
2023-05-03T07:27:49.114Z,13.01
2023-05-03T07:30:15.741Z,13.24
2023-05-03T07:32:42.290Z,13.38
2023-05-03T07:35:09.198Z,13.52
2023-05-03T07:37:35.612Z,13.64
2023-05-03T07:40:03.274Z,13.77
2023-05-03T07:42:29.845Z,13.91
2023-05-03T07:44:56.254Z,14.05
2023-05-03T07:47:26.100Z,14.22
2023-05-03T07:50:06.104Z,14.33
2023-05-03T07:52:36.237Z,14.32
2023-05-03T07:55:02.782Z,14.27
2023-05-03T07:57:29.167Z,14.14
2023-05-03T07:59:55.789Z,14.02
2023-05-03T08:02:22.453Z,13.93
2023-05-03T08:04:58.598Z,13.80
2023-05-03T08:07:25.271Z,13.70
2023-05-03T08:09:53.932Z,13.67
2023-05-03T08:12:20.467Z,13.75
2023-05-03T08:14:46.901Z,13.81
2023-05-03T08:17:15.720Z,13.97
2023-05-03T08:19:42.273Z,14.17
2023-05-03T08:22:08.977Z,14.37
2023-05-03T08:24:35.421Z,14.53
2023-05-03T08:27:02.403Z,14.68
2023-05-03T08:29:37.300Z,14.75
2023-05-03T08:32:04.335Z,14.80
2023-05-03T08:34:31.218Z,14.86
2023-05-03T08:37:00.706Z,14.90
2023-05-03T08:39:27.292Z,14.83
2023-05-03T08:41:56.186Z,14.80
2023-05-03T08:44:23.315Z,14.79
2023-05-03T08:46:49.891Z,14.86
2023-05-03T08:49:16.871Z,14.86
2023-05-03T08:51:55.022Z,14.75
2023-05-03T08:54:21.557Z,14.59
2023-05-03T08:56:48.862Z,14.41
2023-05-03T08:59:15.446Z,14.33
2023-05-03T09:01:42.126Z,14.16
2023-05-03T09:04:09.423Z,13.98
2023-05-03T09:06:36.168Z,13.88
2023-05-03T09:09:06.086Z,13.83
2023-05-03T09:11:33.441Z,13.77
2023-05-03T09:14:16.645Z,13.71
2023-05-03T09:16:44.721Z,13.65
2023-05-03T09:19:12.109Z,13.48
2023-05-03T09:21:39.766Z,13.25
2023-05-03T09:24:13.233Z,13.07
2023-05-03T09:26:39.986Z,12.96
2023-05-03T09:29:07.011Z,12.92
2023-05-03T09:31:33.976Z,12.86
2023-05-03T09:34:00.649Z,12.89
2023-05-03T09:36:47.246Z,12.96
2023-05-03T09:39:15.726Z,13.01
2023-05-03T09:41:42.210Z,13.01
2023-05-03T09:44:08.705Z,13.04
2023-05-03T09:46:55.379Z,13.12
2023-05-03T09:49:21.909Z,13.21
2023-05-03T09:51:48.442Z,13.37
2023-05-03T09:54:14.969Z,13.45
2023-05-03T09:56:42.370Z,13.58
2023-05-03T09:59:09.154Z,13.72
2023-05-03T10:01:35.792Z,13.80
2023-05-03T10:04:03.287Z,13.80
2023-05-03T10:06:37.601Z,13.90
2023-05-03T10:09:15.262Z,14.01
2023-05-03T10:11:48.075Z,14.13
2023-05-03T10:14:14.604Z,14.28
2023-05-03T10:16:43.811Z,14.39
2023-05-03T10:19:22.845Z,14.53
2023-05-03T10:22:08.875Z,14.55
2023-05-03T10:24:36.216Z,14.58
2023-05-03T10:27:06.110Z,14.68
2023-05-03T10:29:36.046Z,14.81
2023-05-03T10:32:25.793Z,14.99
2023-05-03T10:34:56.107Z,15.19
2023-05-03T10:37:25.313Z,15.37
2023-05-03T10:40:30.352Z,15.41
2023-05-03T10:43:01.939Z,15.35
2023-05-03T10:45:28.972Z,15.24
2023-05-03T10:48:11.636Z,15.15
2023-05-03T10:50:38.760Z,15.09
2023-05-03T10:53:05.668Z,15.02
2023-05-03T10:55:32.613Z,14.85
2023-05-03T10:58:00.161Z,14.66
2023-05-03T11:00:44.650Z,14.56
2023-05-03T11:03:29.322Z,14.62
2023-05-03T11:05:56.317Z,14.78
2023-05-03T11:08:23.665Z,14.88
2023-05-03T11:10:55.650Z,15.03
2023-05-03T11:13:22.036Z,14.93
2023-05-03T11:15:52.569Z,14.84
2023-05-03T11:18:19.414Z,14.76
2023-05-03T11:20:46.808Z,14.66
2023-05-03T11:23:13.623Z,14.55
2023-05-03T11:25:39.997Z,14.41
2023-05-03T11:28:06.472Z,14.27
2023-05-03T11:30:34.123Z,14.22
2023-05-03T11:33:01.268Z,14.12
2023-05-03T11:35:30.833Z,13.99
2023-05-03T11:37:57.326Z,13.81
2023-05-03T11:40:23.718Z,13.68
2023-05-03T11:42:51.152Z,13.62
2023-05-03T11:45:20.306Z,13.56
2023-05-03T11:47:48.850Z,13.57
2023-05-03T11:50:15.406Z,13.72
2023-05-03T11:52:42.011Z,13.87
2023-05-03T11:55:08.723Z,14.08
2023-05-03T11:57:35.931Z,14.39
2023-05-03T12:00:11.732Z,14.62
2023-05-03T12:02:38.995Z,14.93
2023-05-03T12:05:06.466Z,15.35
2023-05-03T12:07:34.774Z,15.77
2023-05-03T12:10:17.016Z,15.96
2023-05-03T12:13:00.092Z,16.03
2023-05-03T12:15:30.050Z,16.21
2023-05-03T12:18:00.653Z,16.23
2023-05-03T12:23:08.743Z,16.22
2023-05-03T12:25:39.790Z,16.26
2023-05-03T12:28:20.209Z,16.33
2023-05-03T12:30:54.482Z,16.31
2023-05-03T12:33:23.428Z,16.33
2023-05-03T12:35:53.351Z,16.28
2023-05-03T12:38:23.552Z,16.11
2023-05-03T12:40:51.531Z,16.05
2023-05-03T12:43:18.058Z,16.05
2023-05-03T12:45:52.356Z,16.02
2023-05-03T12:48:25.223Z,16.01
2023-05-03T12:50:52.292Z,15.93
2023-05-03T12:53:19.178Z,16.00
2023-05-03T12:55:51.056Z,15.90
2023-05-03T13:01:22.066Z,16.00
2023-05-03T13:03:44.485Z,15.91
2023-05-03T13:06:18.031Z,15.89
2023-05-03T13:08:50.058Z,15.84
2023-05-03T13:11:17.209Z,15.81
2023-05-03T13:13:43.748Z,16.01
2023-05-03T13:16:10.357Z,16.29
2023-05-03T13:18:36.843Z,16.40
2023-05-03T13:21:03.319Z,16.62
2023-05-03T13:23:30.030Z,16.83
2023-05-03T13:25:56.477Z,16.96
2023-05-03T13:28:22.896Z,17.01
2023-05-03T13:30:49.290Z,16.91
2023-05-03T13:33:15.727Z,16.78
2023-05-03T13:35:42.211Z,16.84
2023-05-03T13:38:08.708Z,17.07
2023-05-03T13:40:34.997Z,17.30
2023-05-03T13:43:01.557Z,17.41
2023-05-03T13:45:28.124Z,17.39
2023-05-03T13:48:13.306Z,17.22
2023-05-03T13:50:41.260Z,17.12
2023-05-03T13:53:07.735Z,17.09
2023-05-03T13:55:34.102Z,17.11
2023-05-03T13:58:00.761Z,17.22
2023-05-03T14:00:27.119Z,17.37
2023-05-03T14:02:56.842Z,17.38
2023-05-03T14:05:23.535Z,17.34
2023-05-03T14:07:49.946Z,17.41
2023-05-03T14:10:16.383Z,17.56
2023-05-03T14:12:43.023Z,17.63
2023-05-03T14:15:10.235Z,17.69
2023-05-03T14:17:39.579Z,17.75
2023-05-03T14:20:07.168Z,17.65
2023-05-03T14:22:34.392Z,17.66
2023-05-03T14:25:01.375Z,17.77
2023-05-03T14:27:27.869Z,17.88
2023-05-03T14:29:55.323Z,17.91
2023-05-03T14:32:23.193Z,17.87
2023-05-03T14:34:49.675Z,17.82
2023-05-03T14:37:16.155Z,17.75
2023-05-03T14:39:42.517Z,17.58
2023-05-03T14:42:12.178Z,17.46
2023-05-03T14:44:38.690Z,17.30
2023-05-03T14:47:05.142Z,17.07
2023-05-03T14:49:31.796Z,16.87
2023-05-03T14:51:58.130Z,16.66
2023-05-03T14:54:27.886Z,16.48
2023-05-03T14:56:54.435Z,16.26
2023-05-03T14:59:21.007Z,15.97
2023-05-03T15:01:47.518Z,15.73
2023-05-03T15:04:14.148Z,15.50
2023-05-03T15:06:40.515Z,15.24
2023-05-03T15:09:06.969Z,15.05
2023-05-03T15:11:33.884Z,14.84
2023-05-03T15:14:00.376Z,14.59
2023-05-03T15:16:26.902Z,14.46
2023-05-03T15:18:53.423Z,14.40
2023-05-03T15:21:19.899Z,14.38
2023-05-03T15:23:46.595Z,14.39
2023-05-03T15:26:18.602Z,14.41
2023-05-03T15:28:45.372Z,14.49
2023-05-03T15:31:12.474Z,14.59
2023-05-03T15:33:39.758Z,14.72
2023-05-03T15:36:15.248Z,14.82
2023-05-03T15:38:41.723Z,14.90
2023-05-03T15:41:08.317Z,14.97
2023-05-03T15:43:34.683Z,15.00
2023-05-03T15:46:01.520Z,14.91
2023-05-03T15:48:28.092Z,14.79
2023-05-03T15:50:54.535Z,14.72
2023-05-03T15:53:21.021Z,14.70
2023-05-03T15:55:47.503Z,14.71
2023-05-03T15:58:16.434Z,14.76
2023-05-03T16:00:45.352Z,14.76
2023-05-03T16:03:17.821Z,14.78
2023-05-03T16:05:44.250Z,14.76
2023-05-03T16:08:10.796Z,14.77
2023-05-03T16:10:42.087Z,14.83
2023-05-03T16:13:08.492Z,14.88
2023-05-03T16:15:34.993Z,14.94
2023-05-03T16:18:03.380Z,14.97
2023-05-03T16:20:30.057Z,14.99
2023-05-03T16:23:08.305Z,15.00
2023-05-03T16:25:42.650Z,14.92
2023-05-03T16:28:15.018Z,14.78
2023-05-03T16:30:41.725Z,14.64
2023-05-03T16:33:08.340Z,14.52
2023-05-03T16:35:35.008Z,14.41
2023-05-03T16:38:01.401Z,14.32
2023-05-03T16:40:27.851Z,14.24
2023-05-03T16:42:54.246Z,14.19
2023-05-03T16:45:20.662Z,14.13
2023-05-03T16:47:47.187Z,14.09
2023-05-03T16:50:13.904Z,14.08
2023-05-03T16:52:41.343Z,14.05
2023-05-03T16:55:08.994Z,14.02
2023-05-03T16:57:36.147Z,13.95
2023-05-03T17:00:04.913Z,13.90
2023-05-03T17:02:31.784Z,13.86
2023-05-03T17:04:58.608Z,13.83
2023-05-03T17:07:25.184Z,13.78
2023-05-03T17:09:51.587Z,13.75
2023-05-03T17:12:18.198Z,13.71
2023-05-03T17:14:44.973Z,13.67
2023-05-03T17:17:11.349Z,13.64
2023-05-03T17:19:38.010Z,13.61
2023-05-03T17:22:04.680Z,13.57
2023-05-03T17:24:31.073Z,13.51
2023-05-03T17:26:57.838Z,13.46
2023-05-03T17:29:24.770Z,13.40
2023-05-03T17:31:52.055Z,13.35
2023-05-03T17:34:18.723Z,13.29
2023-05-03T17:36:45.534Z,13.23
2023-05-03T17:39:11.878Z,13.16
2023-05-03T17:41:38.567Z,13.11
2023-05-03T17:44:05.084Z,13.07
2023-05-03T17:46:33.093Z,13.01
2023-05-03T17:49:01.522Z,12.93
2023-05-03T17:51:30.051Z,12.85
2023-05-03T17:53:56.365Z,12.77
2023-05-03T17:56:22.990Z,12.70
2023-05-03T17:58:49.466Z,12.65
2023-05-03T18:01:16.173Z,12.61
2023-05-03T18:03:42.867Z,12.57
2023-05-03T18:06:10.559Z,12.53
2023-05-03T18:08:37.022Z,12.48
2023-05-03T18:11:03.745Z,12.43
2023-05-03T18:13:30.627Z,12.37
2023-05-03T18:15:57.375Z,12.28
2023-05-03T18:18:23.945Z,12.20
2023-05-03T18:21:00.319Z,12.11
2023-05-03T18:23:27.106Z,12.01
2023-05-03T18:25:53.594Z,11.91
2023-05-03T18:28:20.179Z,11.80
2023-05-03T18:30:47.071Z,11.68
2023-05-03T18:33:13.654Z,11.57
2023-05-03T18:35:40.203Z,11.46
2023-05-03T18:38:06.785Z,11.34
2023-05-03T18:40:33.134Z,11.18
2023-05-03T18:42:59.515Z,11.01
2023-05-03T18:45:26.338Z,10.84
2023-05-03T18:47:52.712Z,10.69
2023-05-03T18:50:19.125Z,10.53
2023-05-03T18:52:46.448Z,10.38
2023-05-03T18:55:12.836Z,10.24
2023-05-03T18:57:39.234Z,10.11
2023-05-03T19:00:06.851Z,9.97
2023-05-03T19:02:33.263Z,9.86
2023-05-03T19:04:59.922Z,9.77
2023-05-03T19:07:30.196Z,9.67
2023-05-03T19:09:56.847Z,9.57
2023-05-03T19:12:23.512Z,9.48
2023-05-03T19:14:50.012Z,9.41
2023-05-03T19:17:16.503Z,9.34
2023-05-03T19:19:42.893Z,9.30
2023-05-03T19:22:10.453Z,9.27
2023-05-03T19:24:37.030Z,9.23
2023-05-03T19:27:03.706Z,9.20
2023-05-03T19:29:30.396Z,9.17
2023-05-03T19:31:56.963Z,9.15
2023-05-03T19:34:24.052Z,9.13
2023-05-03T19:36:50.595Z,9.10
2023-05-03T19:39:17.093Z,9.07
2023-05-03T19:41:45.971Z,9.01
2023-05-03T19:44:12.847Z,8.92
2023-05-03T19:46:39.371Z,8.82
2023-05-03T19:49:06.487Z,8.72
2023-05-03T19:51:32.939Z,8.61
2023-05-03T19:54:02.504Z,8.52
2023-05-03T19:56:28.981Z,8.43
2023-05-03T19:58:55.442Z,8.34
2023-05-03T20:01:22.084Z,8.27
2023-05-03T20:03:48.603Z,8.19
2023-05-03T20:06:15.150Z,8.12
2023-05-03T20:08:41.486Z,8.04
2023-05-03T20:11:08.206Z,7.95
2023-05-03T20:13:34.752Z,7.86
2023-05-03T20:16:01.682Z,7.79
2023-05-03T20:18:28.680Z,7.75
2023-05-03T20:20:56.993Z,7.76
2023-05-03T20:23:24.283Z,7.76
2023-05-03T20:25:51.463Z,7.75
2023-05-03T20:28:19.361Z,7.73
2023-05-03T20:30:48.987Z,7.67
2023-05-03T20:33:15.619Z,7.63
2023-05-03T20:35:42.742Z,7.56
2023-05-03T20:38:09.233Z,7.52
2023-05-03T20:40:35.737Z,7.48
2023-05-03T20:43:05.644Z,7.41
2023-05-03T20:45:32.077Z,7.30
2023-05-03T20:47:58.761Z,7.20
2023-05-03T20:50:25.523Z,7.11
2023-05-03T20:52:51.929Z,7.07
2023-05-03T20:55:18.375Z,7.02
2023-05-03T20:57:45.206Z,7.00
2023-05-03T21:00:11.806Z,6.96
2023-05-03T21:02:38.215Z,6.92
2023-05-03T21:05:06.037Z,6.86
2023-05-03T21:07:32.509Z,6.84
2023-05-03T21:09:59.025Z,6.83
2023-05-03T21:12:25.432Z,6.81
2023-05-03T21:14:52.016Z,6.81
2023-05-03T21:17:18.517Z,6.81
2023-05-03T21:19:45.017Z,6.79
2023-05-03T21:22:11.345Z,6.73
2023-05-03T21:24:40.101Z,6.60
2023-05-03T21:27:06.635Z,6.46
2023-05-03T21:29:32.975Z,6.37
2023-05-03T21:31:59.670Z,6.32
2023-05-03T21:34:26.380Z,6.30
2023-05-03T21:36:52.747Z,6.25
2023-05-03T21:39:19.079Z,6.20
2023-05-03T21:41:45.984Z,6.18
2023-05-03T21:44:12.428Z,6.18
2023-05-03T21:46:41.988Z,6.18
2023-05-03T21:49:08.390Z,6.19
2023-05-03T21:51:34.757Z,6.22
2023-05-03T21:54:01.079Z,6.25
2023-05-03T21:56:27.417Z,6.29
2023-05-03T21:58:53.780Z,6.30
2023-05-03T22:01:20.326Z,6.30
2023-05-03T22:03:47.641Z,6.25
2023-05-03T22:06:14.265Z,6.22
2023-05-03T22:08:40.616Z,6.19
2023-05-03T22:11:06.929Z,6.11
2023-05-03T22:13:33.424Z,6.01
2023-05-03T22:16:04.296Z,5.92
2023-05-03T22:18:30.920Z,5.83
2023-05-03T22:20:57.250Z,5.76
2023-05-03T22:23:23.581Z,5.69
2023-05-03T22:25:49.942Z,5.64
2023-05-03T22:28:16.252Z,5.58
2023-05-03T22:30:42.620Z,5.49
2023-05-03T22:33:09.090Z,5.41
2023-05-03T22:35:35.500Z,5.35
2023-05-03T22:38:01.801Z,5.33
2023-05-03T22:40:28.126Z,5.36
2023-05-03T22:42:57.619Z,5.41
2023-05-03T22:45:23.906Z,5.44
2023-05-03T22:47:50.285Z,5.45
2023-05-03T22:50:16.697Z,5.41
2023-05-03T22:52:43.026Z,5.39
2023-05-03T22:55:09.551Z,5.38
2023-05-03T22:57:35.859Z,5.39
2023-05-03T23:00:02.587Z,5.41
2023-05-03T23:02:29.156Z,5.40
2023-05-03T23:04:55.911Z,5.36
2023-05-03T23:07:22.277Z,5.30
2023-05-03T23:09:48.619Z,5.23
2023-05-03T23:12:15.103Z,5.18
2023-05-03T23:14:41.408Z,5.13
2023-05-03T23:17:07.706Z,5.08
2023-05-03T23:19:34.074Z,5.02
2023-05-03T23:22:00.526Z,4.97
2023-05-03T23:24:26.929Z,4.90
2023-05-03T23:26:53.227Z,4.80
2023-05-03T23:29:19.864Z,4.72
2023-05-03T23:31:46.853Z,4.67
2023-05-03T23:34:13.813Z,4.61
2023-05-03T23:36:40.147Z,4.54
2023-05-03T23:39:06.462Z,4.47
2023-05-03T23:41:32.824Z,4.41
2023-05-03T23:43:59.324Z,4.35
2023-05-03T23:46:25.652Z,4.32
2023-05-03T23:48:51.932Z,4.28
2023-05-03T23:51:18.240Z,4.25
2023-05-03T23:53:44.690Z,4.23
2023-05-03T23:56:11.081Z,4.24
2023-05-03T23:58:37.359Z,4.23
